createdAt,value
2022-08-20T00:01:17.944Z,1.07
2022-08-20T00:03:53.193Z,1.10
2022-08-20T00:06:24.627Z,0.90
2022-08-20T00:08:53.882Z,0.87
2022-08-20T00:11:25.784Z,1.10
2022-08-20T00:13:58.622Z,1.30
2022-08-20T00:16:32.652Z,1.10
2022-08-20T00:19:00.940Z,0.90
2022-08-20T00:21:29.394Z,1.10
2022-08-20T00:24:00.878Z,1.20
2022-08-20T00:26:28.971Z,1.03
2022-08-20T00:28:56.870Z,1.03
2022-08-20T00:31:25.390Z,0.97
2022-08-20T00:33:53.522Z,1.17
2022-08-20T00:36:22.630Z,1.23
2022-08-20T00:39:02.668Z,1.00
2022-08-20T00:41:32.029Z,1.13
2022-08-20T00:44:09.279Z,1.13
2022-08-20T00:46:37.474Z,1.20
2022-08-20T00:49:08.272Z,1.40
2022-08-20T00:51:39.551Z,1.20
2022-08-20T00:54:12.289Z,0.93
2022-08-20T00:56:43.782Z,0.90
2022-08-20T00:59:15.618Z,1.10
2022-08-20T01:01:55.385Z,1.23
2022-08-20T01:04:26.393Z,1.70
2022-08-20T01:06:54.819Z,1.67
2022-08-20T01:09:49.946Z,1.60
2022-08-20T01:12:15.268Z,1.50
2022-08-20T01:14:46.276Z,1.40
2022-08-20T01:17:18.596Z,1.60
2022-08-20T01:19:51.202Z,0.90
2022-08-20T01:22:42.513Z,1.10
2022-08-20T01:25:18.050Z,0.97
2022-08-20T01:27:53.227Z,0.87
2022-08-20T01:30:29.912Z,1.13
2022-08-20T01:32:57.915Z,0.83
2022-08-20T01:35:27.254Z,1.07
2022-08-20T01:37:55.765Z,0.70
2022-08-20T01:40:36.894Z,1.10
2022-08-20T01:43:09.669Z,1.00
2022-08-20T01:45:40.195Z,1.10
2022-08-20T01:48:08.379Z,1.13
2022-08-20T01:50:41.236Z,1.30
2022-08-20T01:53:18.196Z,1.00
2022-08-20T01:55:46.355Z,1.00
2022-08-20T01:58:15.710Z,1.23
2022-08-20T02:00:43.943Z,1.20
2022-08-20T02:03:11.857Z,1.13
2022-08-20T02:05:39.839Z,1.10
2022-08-20T02:08:07.759Z,1.07
2022-08-20T02:10:36.950Z,0.90
2022-08-20T02:13:07.600Z,1.17
2022-08-20T02:15:39.813Z,1.50
2022-08-20T02:18:14.832Z,1.10
2022-08-20T02:20:44.413Z,1.23
2022-08-20T02:23:13.115Z,1.50
2022-08-20T02:25:44.715Z,1.40
2022-08-20T02:28:19.343Z,1.43
2022-08-20T02:30:52.423Z,1.37
2022-08-20T02:33:24.246Z,1.30
2022-08-20T02:35:56.905Z,1.40
2022-08-20T02:38:25.447Z,1.23
2022-08-20T02:40:53.670Z,1.50
2022-08-20T02:43:21.596Z,1.40
2022-08-20T02:45:51.688Z,1.50
2022-08-20T02:48:22.938Z,1.43
2022-08-20T02:50:53.927Z,1.57
2022-08-20T02:53:22.774Z,1.30
2022-08-20T02:55:51.071Z,1.60
2022-08-20T02:58:19.738Z,1.50
2022-08-20T03:00:48.034Z,1.60
2022-08-20T03:03:22.512Z,1.40
2022-08-20T03:05:52.384Z,1.33
2022-08-20T03:08:20.436Z,1.47
2022-08-20T03:10:49.373Z,1.50
2022-08-20T03:13:17.799Z,1.70
2022-08-20T03:15:47.683Z,1.57
2022-08-20T03:18:18.767Z,1.47
2022-08-20T03:20:52.088Z,1.50
2022-08-20T03:23:22.048Z,1.57
2022-08-20T03:25:50.765Z,2.13
2022-08-20T03:28:19.859Z,1.90
2022-08-20T03:30:48.171Z,1.97
2022-08-20T03:33:17.458Z,1.80
2022-08-20T03:35:45.386Z,2.13
2022-08-20T03:38:15.645Z,1.80
2022-08-20T03:40:43.680Z,1.83
2022-08-20T03:43:11.639Z,1.90
2022-08-20T03:45:42.170Z,2.13
2022-08-20T03:48:12.636Z,2.10
2022-08-20T03:50:43.052Z,2.10
2022-08-20T03:53:14.548Z,2.10
2022-08-20T03:55:45.421Z,2.27
2022-08-20T03:58:22.241Z,1.90
2022-08-20T04:01:03.108Z,2.43
2022-08-20T04:03:31.163Z,1.93
2022-08-20T04:06:00.687Z,2.00
2022-08-20T04:08:30.402Z,2.03
2022-08-20T04:10:59.597Z,1.90
2022-08-20T04:13:29.482Z,2.13
2022-08-20T04:15:59.126Z,2.20
2022-08-20T04:18:27.628Z,2.37
2022-08-20T04:20:55.836Z,2.50
2022-08-20T04:23:25.161Z,2.90
2022-08-20T04:25:53.078Z,2.50
2022-08-20T04:28:27.056Z,2.47
2022-08-20T04:30:55.714Z,2.40
2022-08-20T04:33:33.969Z,2.60
2022-08-20T04:36:06.178Z,2.47
2022-08-20T04:38:47.957Z,2.73
2022-08-20T04:41:22.320Z,2.80
2022-08-20T04:43:53.002Z,3.23
2022-08-20T04:46:25.477Z,3.17
2022-08-20T04:48:53.756Z,2.30
2022-08-20T04:51:22.727Z,2.97
2022-08-20T04:53:54.301Z,2.53
2022-08-20T04:56:24.597Z,2.77
2022-08-20T04:58:54.021Z,2.60
2022-08-20T05:01:23.650Z,2.57
2022-08-20T05:03:54.690Z,2.90
2022-08-20T05:06:25.016Z,4.10
2022-08-20T05:08:54.544Z,3.30
2022-08-20T05:11:32.746Z,3.50
2022-08-20T05:14:03.038Z,3.50
2022-08-20T05:16:31.362Z,3.53
2022-08-20T05:18:59.212Z,3.67
2022-08-20T05:21:27.106Z,3.40
2022-08-20T05:23:56.383Z,4.10
2022-08-20T05:26:27.152Z,5.00
2022-08-20T05:28:58.362Z,3.37
2022-08-20T05:31:32.204Z,3.30
2022-08-20T05:34:01.938Z,3.80
2022-08-20T05:36:30.016Z,3.30
2022-08-20T05:38:59.261Z,3.37
2022-08-20T05:41:30.269Z,3.53
2022-08-20T05:44:01.720Z,3.73
2022-08-20T05:46:31.126Z,3.63
2022-08-20T05:49:00.209Z,3.77
2022-08-20T05:51:29.107Z,3.80
2022-08-20T05:53:59.302Z,3.83
2022-08-20T05:56:31.159Z,3.33
2022-08-20T05:59:02.775Z,3.23
2022-08-20T06:01:30.804Z,3.23
2022-08-20T06:04:16.301Z,3.10
2022-08-20T06:06:47.073Z,3.70
2022-08-20T06:09:16.707Z,3.47
2022-08-20T06:12:01.539Z,3.20
2022-08-20T06:14:29.535Z,3.37
2022-08-20T06:17:04.131Z,3.60
2022-08-20T06:19:33.306Z,3.67
2022-08-20T06:22:01.319Z,3.13
2022-08-20T06:24:29.305Z,3.00
2022-08-20T06:26:58.616Z,2.60
2022-08-20T06:29:28.536Z,3.00
2022-08-20T06:31:57.375Z,3.30
2022-08-20T06:34:28.435Z,2.90
2022-08-20T06:36:59.763Z,3.07
2022-08-20T06:39:31.116Z,3.10
2022-08-20T06:41:59.536Z,3.17
2022-08-20T06:44:29.054Z,2.80
2022-08-20T06:47:01.668Z,2.87
2022-08-20T06:49:29.648Z,2.90
2022-08-20T06:52:03.704Z,3.33
2022-08-20T06:54:34.258Z,2.87
2022-08-20T06:57:02.466Z,3.40
2022-08-20T06:59:31.854Z,2.83
2022-08-20T07:01:59.687Z,4.03
2022-08-20T07:04:28.074Z,2.57
2022-08-20T07:06:57.660Z,2.80
2022-08-20T07:09:26.767Z,2.77
2022-08-20T07:11:54.620Z,3.63
2022-08-20T07:14:22.599Z,3.10
2022-08-20T07:16:51.857Z,2.67
2022-08-20T07:19:19.775Z,2.80
2022-08-20T07:21:49.345Z,2.83
2022-08-20T07:24:17.220Z,2.80
2022-08-20T07:26:45.109Z,2.80
2022-08-20T07:29:13.061Z,2.70
2022-08-20T07:31:58.427Z,3.17
2022-08-20T07:34:27.729Z,2.73
2022-08-20T07:36:55.630Z,2.80
2022-08-20T07:39:23.567Z,3.07
2022-08-20T07:42:03.098Z,3.07
2022-08-20T07:44:31.397Z,2.17
2022-08-20T07:47:00.054Z,2.53
2022-08-20T07:49:29.983Z,3.00
2022-08-20T07:51:57.909Z,2.50
2022-08-20T07:54:25.756Z,2.53
2022-08-20T07:57:02.523Z,2.60
2022-08-20T07:59:30.711Z,2.57
2022-08-20T08:01:58.819Z,2.47
2022-08-20T08:04:26.776Z,2.70
2022-08-20T08:06:59.967Z,2.40
2022-08-20T08:09:29.374Z,2.50
2022-08-20T08:12:00.621Z,2.70
2022-08-20T08:14:32.364Z,2.50
2022-08-20T08:17:04.520Z,2.70
2022-08-20T08:19:38.783Z,2.83
2022-08-20T08:22:11.503Z,2.70
2022-08-20T08:24:39.710Z,2.80
2022-08-20T08:27:08.607Z,2.57
2022-08-20T08:29:36.983Z,2.00
2022-08-20T08:32:06.018Z,2.67
2022-08-20T08:34:35.272Z,2.40
2022-08-20T08:37:03.810Z,2.50
2022-08-20T08:39:35.086Z,2.60
2022-08-20T08:42:05.195Z,2.60
2022-08-20T08:44:38.605Z,2.33
2022-08-20T08:47:18.520Z,2.43
2022-08-20T08:49:48.196Z,2.40
2022-08-20T08:52:22.274Z,2.20
2022-08-20T08:54:54.729Z,2.50
2022-08-20T08:57:24.147Z,2.00
2022-08-20T09:00:03.608Z,2.00
2022-08-20T09:02:36.305Z,1.73
2022-08-20T09:05:13.659Z,1.77
2022-08-20T09:07:45.583Z,1.90
2022-08-20T09:10:14.991Z,1.73
2022-08-20T09:12:57.851Z,1.70
2022-08-20T09:15:25.758Z,1.50
2022-08-20T09:17:53.849Z,1.73
2022-08-20T09:20:26.884Z,1.50
2022-08-20T09:22:55.678Z,1.40
2022-08-20T09:25:25.115Z,1.40
2022-08-20T09:27:53.103Z,1.60
2022-08-20T09:30:21.134Z,1.20
2022-08-20T09:32:49.602Z,1.83
2022-08-20T09:35:17.604Z,1.40
2022-08-20T09:37:46.907Z,1.57
2022-08-20T09:40:21.162Z,1.73
2022-08-20T09:42:51.253Z,1.37
2022-08-20T09:45:20.196Z,1.40
2022-08-20T09:47:56.320Z,1.37
2022-08-20T09:50:25.265Z,1.30
2022-08-20T09:52:55.221Z,1.40
2022-08-20T09:55:29.207Z,1.40
2022-08-20T09:57:59.276Z,1.20
2022-08-20T10:00:27.141Z,1.20
2022-08-20T10:02:55.171Z,1.20
2022-08-20T10:05:23.080Z,1.20
2022-08-20T10:07:51.111Z,1.70
2022-08-20T10:10:19.204Z,1.87
2022-08-20T10:12:49.541Z,1.20
2022-08-20T10:15:21.098Z,0.87
2022-08-20T10:17:48.928Z,0.77
2022-08-20T10:20:18.365Z,0.40
2022-08-20T10:22:46.647Z,0.30
2022-08-20T10:25:14.649Z,0.20
2022-08-20T10:27:42.568Z,0.37
2022-08-20T10:30:11.679Z,0.40
2022-08-20T10:32:41.093Z,0.60
2022-08-20T10:35:09.460Z,0.50
2022-08-20T10:37:37.403Z,0.70
2022-08-20T10:40:07.036Z,0.67
2022-08-20T10:42:37.909Z,0.60
2022-08-20T10:45:09.288Z,0.50
2022-08-20T10:47:37.207Z,0.50
2022-08-20T10:50:09.611Z,0.70
2022-08-20T10:52:38.137Z,0.50
2022-08-20T10:55:07.122Z,0.50
2022-08-20T10:57:35.206Z,0.50
2022-08-20T11:00:06.116Z,0.50
2022-08-20T11:02:33.976Z,0.60
2022-08-20T11:05:01.945Z,0.70
2022-08-20T11:07:55.527Z,0.60
2022-08-20T11:10:23.411Z,0.60
2022-08-20T11:12:51.270Z,0.67
2022-08-20T11:15:19.275Z,0.50
2022-08-20T11:17:48.119Z,0.50
2022-08-20T11:20:18.620Z,0.53
2022-08-20T11:22:48.608Z,0.60
2022-08-20T11:25:16.605Z,0.57
2022-08-20T11:27:47.171Z,0.40
2022-08-20T11:30:20.028Z,0.50
2022-08-20T11:32:47.906Z,0.40
2022-08-20T11:38:05.562Z,0.50
2022-08-20T11:40:33.510Z,0.20
2022-08-20T11:43:17.824Z,0.30
2022-08-20T11:45:48.615Z,0.70
2022-08-20T11:48:16.861Z,0.50
2022-08-20T11:50:45.167Z,0.70
2022-08-20T11:53:14.980Z,0.53
2022-08-20T11:55:44.488Z,0.77
2022-08-20T11:58:12.796Z,0.70
2022-08-20T12:00:40.850Z,0.57
2022-08-20T12:03:10.240Z,0.77
2022-08-20T12:05:38.730Z,1.00
2022-08-20T12:08:08.387Z,0.50
2022-08-20T12:10:37.959Z,0.97
2022-08-20T12:13:06.274Z,0.50
2022-08-20T12:15:34.702Z,0.30
2022-08-20T12:18:06.508Z,0.40
2022-08-20T12:20:34.812Z,0.50
2022-08-20T12:23:02.740Z,0.40
2022-08-20T12:25:31.055Z,0.40
2022-08-20T12:28:00.744Z,0.47
2022-08-20T12:30:29.135Z,0.40
2022-08-20T12:32:57.074Z,0.70
2022-08-20T12:35:25.127Z,0.30
2022-08-20T12:37:53.286Z,0.50
2022-08-20T12:40:32.000Z,0.60
2022-08-20T12:43:03.430Z,0.60
2022-08-20T12:45:32.229Z,0.50
2022-08-20T12:48:05.579Z,0.50
2022-08-20T12:50:34.097Z,0.70
2022-08-20T12:53:02.528Z,0.50
2022-08-20T12:55:31.131Z,0.40
2022-08-20T12:58:01.703Z,0.60
2022-08-20T13:00:33.376Z,0.40
2022-08-20T13:03:03.339Z,0.80
2022-08-20T13:05:32.593Z,0.70
2022-08-20T13:08:00.868Z,0.80
2022-08-20T13:10:31.275Z,0.70
2022-08-20T13:12:59.590Z,0.90
2022-08-20T13:15:27.515Z,0.40
2022-08-20T13:18:00.107Z,0.50
2022-08-20T13:20:34.659Z,0.40
2022-08-20T13:23:03.771Z,0.30
2022-08-20T13:25:32.204Z,0.40
2022-08-20T13:28:03.922Z,0.50
2022-08-20T13:30:32.939Z,0.50
2022-08-20T13:33:02.337Z,0.50
2022-08-20T13:35:30.234Z,0.40
2022-08-20T13:37:58.205Z,0.43
2022-08-20T13:40:26.754Z,0.57
2022-08-20T13:42:54.653Z,0.70
2022-08-20T13:45:22.637Z,0.60
2022-08-20T13:47:54.059Z,0.60
2022-08-20T13:50:25.608Z,0.73
2022-08-20T13:52:53.771Z,0.53
2022-08-20T13:55:23.999Z,0.60
2022-08-20T13:57:52.252Z,0.60
2022-08-20T14:00:31.804Z,0.43
2022-08-20T14:03:00.472Z,0.40
2022-08-20T14:05:29.999Z,0.80
2022-08-20T14:08:05.112Z,0.57
2022-08-20T14:10:33.099Z,0.70
2022-08-20T14:13:01.250Z,0.73
2022-08-20T14:15:29.110Z,0.57
2022-08-20T14:17:58.652Z,0.67
2022-08-20T14:20:31.926Z,0.50
2022-08-20T14:23:01.261Z,0.63
2022-08-20T14:25:31.617Z,0.50
2022-08-20T14:28:00.753Z,0.50
2022-08-20T14:30:30.552Z,0.60
2022-08-20T14:32:58.631Z,0.40
2022-08-20T14:35:26.783Z,0.60
2022-08-20T14:37:56.631Z,0.30
2022-08-20T14:40:26.810Z,0.40
2022-08-20T14:42:56.045Z,0.40
2022-08-20T14:45:24.614Z,0.30
2022-08-20T14:47:54.457Z,0.40
2022-08-20T14:50:26.123Z,0.20
2022-08-20T14:52:54.506Z,0.40
2022-08-20T14:55:26.899Z,0.33
2022-08-20T14:57:55.211Z,2.43
2022-08-20T15:00:25.047Z,5.10
2022-08-20T15:02:53.452Z,3.53
2022-08-20T15:05:22.031Z,0.80
2022-08-20T15:07:54.164Z,0.50
2022-08-20T15:10:27.103Z,0.73
2022-08-20T15:12:55.510Z,1.33
2022-08-20T15:15:24.394Z,1.63
2022-08-20T15:17:54.945Z,3.23
2022-08-20T15:20:24.899Z,2.20
2022-08-20T15:22:52.854Z,1.70
2022-08-20T15:25:24.312Z,1.50
2022-08-20T15:27:55.683Z,1.37
2022-08-20T15:30:30.212Z,0.50
2022-08-20T15:32:58.657Z,0.53
2022-08-20T15:35:28.814Z,0.70
2022-08-20T15:37:59.388Z,0.53
2022-08-20T15:40:31.145Z,0.40
2022-08-20T15:43:00.305Z,0.33
2022-08-20T15:45:28.573Z,0.50
2022-08-20T15:48:02.671Z,0.57
2022-08-20T15:50:50.744Z,0.33
2022-08-20T15:53:25.588Z,0.90
2022-08-20T15:56:00.661Z,0.47
2022-08-20T15:58:36.031Z,0.67
2022-08-20T16:01:24.738Z,0.50
2022-08-20T16:04:24.984Z,0.77
2022-08-20T16:06:57.975Z,0.97
2022-08-20T16:09:43.257Z,0.83
2022-08-20T16:12:21.047Z,0.70
2022-08-20T16:14:55.879Z,0.63
2022-08-20T16:17:31.235Z,0.70
2022-08-20T16:20:07.172Z,0.80
2022-08-20T16:22:38.251Z,0.90
2022-08-20T16:25:07.574Z,0.70
2022-08-20T16:27:48.374Z,0.60
2022-08-20T16:30:22.051Z,0.90
2022-08-20T16:32:59.641Z,0.70
2022-08-20T16:35:31.746Z,0.73
2022-08-20T16:38:06.881Z,0.67
2022-08-20T16:40:41.391Z,0.80
2022-08-20T16:43:17.522Z,0.70
2022-08-20T16:45:50.909Z,0.70
2022-08-20T16:48:20.086Z,1.37
2022-08-20T16:50:57.590Z,0.80
2022-08-20T16:53:27.245Z,0.80
2022-08-20T16:55:57.112Z,1.10
2022-08-20T16:58:26.898Z,0.83
2022-08-20T17:01:07.839Z,0.67
2022-08-20T17:03:40.250Z,0.83
2022-08-20T17:06:18.145Z,0.80
2022-08-20T17:08:51.419Z,0.90
2022-08-20T17:11:26.087Z,0.80
2022-08-20T17:14:06.849Z,0.73
2022-08-20T17:16:37.889Z,1.10
2022-08-20T17:19:12.262Z,0.90
2022-08-20T17:21:41.210Z,0.83
2022-08-20T17:24:16.884Z,0.90
2022-08-20T17:26:47.515Z,0.80
2022-08-20T17:29:20.321Z,0.83
2022-08-20T17:31:51.356Z,1.00
2022-08-20T17:34:22.142Z,0.80
2022-08-20T17:36:56.207Z,1.00
2022-08-20T17:39:26.042Z,1.00
2022-08-20T17:41:58.454Z,1.37
2022-08-20T17:44:33.567Z,0.90
2022-08-20T17:47:03.444Z,1.10
2022-08-20T17:49:35.842Z,0.90
2022-08-20T17:52:12.746Z,1.23
2022-08-20T17:54:45.616Z,0.97
2022-08-20T17:57:17.310Z,1.27
2022-08-20T18:00:00.738Z,0.90
2022-08-20T18:02:30.504Z,0.87
2022-08-20T18:04:58.473Z,0.93
2022-08-20T18:07:32.198Z,0.90
2022-08-20T18:10:05.061Z,1.00
2022-08-20T18:12:41.503Z,1.00
2022-08-20T18:15:17.350Z,1.10
2022-08-20T18:18:02.735Z,1.40
2022-08-20T18:21:00.908Z,1.17
2022-08-20T18:23:32.916Z,1.00
2022-08-20T18:26:06.544Z,1.33
2022-08-20T18:28:38.946Z,1.10
2022-08-20T18:31:10.371Z,1.30
2022-08-20T18:33:42.093Z,1.10
2022-08-20T18:36:13.577Z,1.43
2022-08-20T18:38:43.230Z,1.30
2022-08-20T18:41:13.983Z,1.27
2022-08-20T18:43:43.234Z,1.30
2022-08-20T18:46:22.854Z,1.10
2022-08-20T18:48:53.211Z,1.23
2022-08-20T18:51:24.745Z,1.33
2022-08-20T18:53:53.048Z,1.03
2022-08-20T18:56:32.520Z,1.10
2022-08-20T18:59:04.453Z,1.00
2022-08-20T19:01:37.450Z,1.40
2022-08-20T19:04:33.161Z,1.20
2022-08-20T19:07:04.734Z,1.23
2022-08-20T19:09:50.880Z,1.20
2022-08-20T19:12:42.420Z,1.07
2022-08-20T19:15:17.282Z,1.20
2022-08-20T19:17:57.257Z,1.40
2022-08-20T19:20:28.110Z,1.20
2022-08-20T19:23:02.435Z,1.30
2022-08-20T19:25:32.747Z,1.63
2022-08-20T19:28:05.388Z,1.53
2022-08-20T19:30:38.736Z,1.30
2022-08-20T19:33:08.804Z,1.40
2022-08-20T19:35:37.718Z,1.43
2022-08-20T19:38:08.178Z,1.23
2022-08-20T19:40:40.106Z,1.17
2022-08-20T19:43:16.177Z,1.30
2022-08-20T19:45:47.484Z,1.73
2022-08-20T19:48:41.437Z,1.57
2022-08-20T19:51:15.921Z,1.40
2022-08-20T19:53:46.927Z,1.90
2022-08-20T19:56:18.659Z,1.53
2022-08-20T19:58:47.464Z,1.50
2022-08-20T20:01:19.252Z,1.63
2022-08-20T20:03:59.655Z,1.47
2022-08-20T20:06:29.490Z,2.00
2022-08-20T20:09:01.887Z,2.20
2022-08-20T20:11:35.231Z,1.80
2022-08-20T20:14:05.890Z,1.97
2022-08-20T20:16:34.922Z,2.33
2022-08-20T20:19:25.203Z,2.40
2022-08-20T20:22:05.426Z,2.43
2022-08-20T20:24:43.320Z,2.70
2022-08-20T20:27:20.847Z,2.50
2022-08-20T20:29:51.771Z,2.40
2022-08-20T20:32:22.625Z,2.33
2022-08-20T20:34:56.259Z,2.43
2022-08-20T20:37:50.302Z,2.57
2022-08-20T20:40:25.977Z,2.00
2022-08-20T20:42:59.606Z,2.47
2022-08-20T20:45:33.791Z,2.13
2022-08-20T20:48:09.355Z,2.30
2022-08-20T20:50:39.587Z,1.93
2022-08-20T20:53:07.500Z,2.30
2022-08-20T20:55:37.309Z,2.50
2022-08-20T20:58:05.604Z,2.20
2022-08-20T21:00:35.147Z,2.27
2022-08-20T21:03:04.543Z,2.40
2022-08-20T21:05:33.545Z,2.80
2022-08-20T21:08:07.077Z,2.53
2022-08-20T21:10:38.022Z,2.70
2022-08-20T21:13:06.582Z,2.10
2022-08-20T21:15:35.795Z,2.30
2022-08-20T21:18:05.687Z,2.33
2022-08-20T21:20:34.126Z,2.10
2022-08-20T21:23:03.890Z,2.50
2022-08-20T21:25:34.131Z,2.40
2022-08-20T21:28:02.020Z,2.30
2022-08-20T21:30:29.952Z,2.57
2022-08-20T21:32:57.961Z,2.40
2022-08-20T21:35:25.955Z,2.67
2022-08-20T21:37:53.896Z,2.43
2022-08-20T21:40:23.233Z,2.70
2022-08-20T21:42:56.607Z,2.57
2022-08-20T21:45:24.643Z,2.60
2022-08-20T21:47:57.128Z,2.13
2022-08-20T21:50:26.673Z,2.30
2022-08-20T21:52:55.236Z,2.13
2022-08-20T21:55:30.081Z,1.90
2022-08-20T21:57:59.447Z,2.10
2022-08-20T22:00:53.812Z,1.80
2022-08-20T22:03:23.202Z,2.00
2022-08-20T22:05:52.261Z,2.03
2022-08-20T22:08:21.298Z,2.00
2022-08-20T22:10:56.999Z,1.97
2022-08-20T22:13:25.803Z,2.20
2022-08-20T22:15:54.116Z,1.93
2022-08-20T22:18:21.974Z,2.03
2022-08-20T22:20:50.299Z,2.53
2022-08-20T22:23:18.188Z,2.10
2022-08-20T22:25:46.087Z,2.20
2022-08-20T22:28:15.371Z,2.20
2022-08-20T22:30:43.427Z,2.53
2022-08-20T22:33:14.474Z,2.07
2022-08-20T22:35:46.108Z,1.93
2022-08-20T22:38:14.190Z,2.33
2022-08-20T22:40:42.118Z,2.10
2022-08-20T22:43:10.014Z,2.10
2022-08-20T22:45:40.653Z,2.30
2022-08-20T22:48:09.720Z,2.33
2022-08-20T22:50:38.782Z,2.33
2022-08-20T22:53:08.077Z,1.77
2022-08-20T22:55:36.915Z,1.87
2022-08-20T22:58:05.414Z,1.90
2022-08-20T23:00:34.147Z,2.17
2022-08-20T23:03:04.966Z,2.20
2022-08-20T23:05:34.866Z,2.00
2022-08-20T23:08:03.003Z,2.00
2022-08-20T23:10:33.839Z,2.23
2022-08-20T23:13:02.096Z,2.30
2022-08-20T23:15:30.886Z,2.20
2022-08-20T23:18:06.235Z,2.63
2022-08-20T23:20:34.162Z,3.30
2022-08-20T23:23:02.227Z,2.40
2022-08-20T23:25:30.132Z,2.77
2022-08-20T23:28:04.031Z,2.67
2022-08-20T23:30:32.501Z,2.53
2022-08-20T23:33:01.732Z,2.60
2022-08-20T23:35:33.040Z,2.40
2022-08-20T23:38:01.756Z,2.80
2022-08-20T23:40:30.302Z,2.63
2022-08-20T23:42:59.030Z,2.23
2022-08-20T23:45:28.296Z,2.30
2022-08-20T23:47:56.191Z,2.20
2022-08-20T23:50:28.908Z,2.13
2022-08-20T23:52:59.270Z,2.13
2022-08-20T23:55:27.741Z,2.33
2022-08-20T23:57:56.129Z,2.00
